Terminal Aerodrome Forecast
Issued by NWS Twin Cities, MN

Home | Current Version | Previous Version | Graphics & Text | Print | Product List | Glossary On
Versions: 1 2 3 4 5 6 7 8 9 10 11 12
075
FTUS43 KMPX 011735
TAFEAU
TAF
KEAU 011735Z 0118/0218 05011G17KT P6SM SCT045 BKN250
     FM012100 03007KT P6SM VCSH BKN045
     FM020300 VRB03KT P6SM SCT050=

USA.gov is the U.S. government's official web portal to all federal, state and local government web resources and services.